sensor_id;sensor_type;location;lat;lon;timestamp;P1;durP1;ratioP1;P2;durP2;ratioP2
28834;SDS011;15969;51.536;11.884;2023-02-15T00:01:45;26.30;;;17.60;;
28834;SDS011;15969;51.536;11.884;2023-02-15T00:04:15;23.73;;;16.70;;
28834;SDS011;15969;51.536;11.884;2023-02-15T00:06:44;26.37;;;17.27;;
28834;SDS011;15969;51.536;11.884;2023-02-15T00:09:10;25.60;;;18.23;;
28834;SDS011;15969;51.536;11.884;2023-02-15T00:11:37;23.93;;;17.30;;
28834;SDS011;15969;51.536;11.884;2023-02-15T00:14:13;28.33;;;19.67;;
28834;SDS011;15969;51.536;11.884;2023-02-15T00:16:45;24.77;;;17.47;;
28834;SDS011;15969;51.536;11.884;2023-02-15T00:19:12;28.63;;;18.80;;
28834;SDS011;15969;51.536;11.884;2023-02-15T00:21:40;25.53;;;16.40;;
28834;SDS011;15969;51.536;11.884;2023-02-15T00:24:07;25.33;;;16.97;;
28834;SDS011;15969;51.536;11.884;2023-02-15T00:26:37;33.13;;;21.37;;
28834;SDS011;15969;51.536;11.884;2023-02-15T00:29:05;50.67;;;28.00;;
28834;SDS011;15969;51.536;11.884;2023-02-15T00:31:32;53.50;;;27.93;;
28834;SDS011;15969;51.536;11.884;2023-02-15T00:36:41;41.30;;;24.77;;
28834;SDS011;15969;51.536;11.884;2023-02-15T00:39:07;51.00;;;29.03;;
28834;SDS011;15969;51.536;11.884;2023-02-15T00:41:34;51.80;;;30.23;;
28834;SDS011;15969;51.536;11.884;2023-02-15T00:43:59;58.07;;;32.00;;
28834;SDS011;15969;51.536;11.884;2023-02-15T00:46:25;52.47;;;30.23;;
28834;SDS011;15969;51.536;11.884;2023-02-15T00:48:51;48.33;;;29.83;;
28834;SDS011;15969;51.536;11.884;2023-02-15T00:51:17;44.37;;;28.30;;
28834;SDS011;15969;51.536;11.884;2023-02-15T00:53:45;42.40;;;27.57;;
28834;SDS011;15969;51.536;11.884;2023-02-15T00:56:11;39.37;;;24.33;;
28834;SDS011;15969;51.536;11.884;2023-02-15T00:58:37;37.47;;;23.90;;
28834;SDS011;15969;51.536;11.884;2023-02-15T01:01:03;38.70;;;24.73;;
28834;SDS011;15969;51.536;11.884;2023-02-15T01:03:38;44.90;;;25.23;;
28834;SDS011;15969;51.536;11.884;2023-02-15T01:06:04;41.20;;;25.50;;
28834;SDS011;15969;51.536;11.884;2023-02-15T01:08:30;44.27;;;26.10;;
28834;SDS011;15969;51.536;11.884;2023-02-15T01:10:56;55.03;;;27.27;;
28834;SDS011;15969;51.536;11.884;2023-02-15T01:13:22;39.20;;;19.03;;
28834;SDS011;15969;51.536;11.884;2023-02-15T01:15:54;49.63;;;18.77;;
28834;SDS011;15969;51.536;11.884;2023-02-15T01:18:20;54.53;;;20.17;;
28834;SDS011;15969;51.536;11.884;2023-02-15T01:20:47;36.67;;;18.07;;
28834;SDS011;15969;51.536;11.884;2023-02-15T01:23:13;55.10;;;18.67;;
28834;SDS011;15969;51.536;11.884;2023-02-15T01:25:39;39.50;;;18.77;;
28834;SDS011;15969;51.536;11.884;2023-02-15T01:28:05;48.60;;;19.23;;
28834;SDS011;15969;51.536;11.884;2023-02-15T01:30:31;52.33;;;19.57;;
28834;SDS011;15969;51.536;11.884;2023-02-15T01:32:58;45.30;;;18.87;;
28834;SDS011;15969;51.536;11.884;2023-02-15T01:35:25;45.43;;;18.70;;
28834;SDS011;15969;51.536;11.884;2023-02-15T01:37:52;56.77;;;19.47;;
28834;SDS011;15969;51.536;11.884;2023-02-15T01:40:19;40.17;;;19.13;;
28834;SDS011;15969;51.536;11.884;2023-02-15T01:42:45;42.17;;;19.33;;
28834;SDS011;15969;51.536;11.884;2023-02-15T01:48:00;50.53;;;19.67;;
28834;SDS011;15969;51.536;11.884;2023-02-15T01:50:40;60.77;;;21.23;;
28834;SDS011;15969;51.536;11.884;2023-02-15T01:53:16;56.93;;;20.43;;
28834;SDS011;15969;51.536;11.884;2023-02-15T01:56:02;56.30;;;19.97;;
28834;SDS011;15969;51.536;11.884;2023-02-15T01:59:00;68.57;;;19.30;;
28834;SDS011;15969;51.536;11.884;2023-02-15T02:01:40;60.63;;;18.10;;
28834;SDS011;15969;51.536;11.884;2023-02-15T02:04:10;48.73;;;17.90;;
28834;SDS011;15969;51.536;11.884;2023-02-15T02:06:44;70.83;;;17.90;;
28834;SDS011;15969;51.536;11.884;2023-02-15T02:09:13;73.80;;;18.03;;
28834;SDS011;15969;51.536;11.884;2023-02-15T02:11:39;78.47;;;19.00;;
28834;SDS011;15969;51.536;11.884;2023-02-15T02:14:05;63.57;;;18.23;;
28834;SDS011;15969;51.536;11.884;2023-02-15T02:16:36;60.97;;;17.30;;
28834;SDS011;15969;51.536;11.884;2023-02-15T02:19:37;45.70;;;18.43;;
28834;SDS011;15969;51.536;11.884;2023-02-15T02:22:55;43.50;;;17.33;;
28834;SDS011;15969;51.536;11.884;2023-02-15T02:34:29;29.90;;;16.27;;
28834;SDS011;15969;51.536;11.884;2023-02-15T02:37:17;34.43;;;16.87;;
28834;SDS011;15969;51.536;11.884;2023-02-15T02:40:20;24.23;;;14.73;;
28834;SDS011;15969;51.536;11.884;2023-02-15T02:43:04;32.80;;;12.70;;
28834;SDS011;15969;51.536;11.884;2023-02-15T02:45:45;25.23;;;10.87;;
28834;SDS011;15969;51.536;11.884;2023-02-15T02:48:21;28.47;;;11.30;;
28834;SDS011;15969;51.536;11.884;2023-02-15T02:50:51;27.40;;;11.70;;
28834;SDS011;15969;51.536;11.884;2023-02-15T02:53:17;28.10;;;11.67;;
28834;SDS011;15969;51.536;11.884;2023-02-15T02:55:47;26.87;;;10.93;;
28834;SDS011;15969;51.536;11.884;2023-02-15T02:58:46;34.83;;;11.47;;
28834;SDS011;15969;51.536;11.884;2023-02-15T03:01:39;25.57;;;9.73;;
28834;SDS011;15969;51.536;11.884;2023-02-15T03:04:17;29.87;;;10.50;;
28834;SDS011;15969;51.536;11.884;2023-02-15T03:06:50;53.17;;;10.17;;
28834;SDS011;15969;51.536;11.884;2023-02-15T03:09:23;38.10;;;11.20;;
28834;SDS011;15969;51.536;11.884;2023-02-15T03:11:59;59.37;;;11.90;;
28834;SDS011;15969;51.536;11.884;2023-02-15T03:14:28;35.93;;;10.53;;
28834;SDS011;15969;51.536;11.884;2023-02-15T03:16:54;45.17;;;12.50;;
28834;SDS011;15969;51.536;11.884;2023-02-15T03:19:25;90.53;;;11.90;;
28834;SDS011;15969;51.536;11.884;2023-02-15T03:21:57;66.77;;;12.83;;
28834;SDS011;15969;51.536;11.884;2023-02-15T03:24:44;45.80;;;12.07;;
28834;SDS011;15969;51.536;11.884;2023-02-15T03:27:27;49.77;;;11.57;;
28834;SDS011;15969;51.536;11.884;2023-02-15T03:30:06;64.03;;;12.43;;
28834;SDS011;15969;51.536;11.884;2023-02-15T03:32:34;31.30;;;11.97;;
28834;SDS011;15969;51.536;11.884;2023-02-15T03:35:02;60.33;;;12.53;;
28834;SDS011;15969;51.536;11.884;2023-02-15T03:37:47;23.13;;;10.93;;
28834;SDS011;15969;51.536;11.884;2023-02-15T03:40:18;36.23;;;11.60;;
28834;SDS011;15969;51.536;11.884;2023-02-15T03:46:05;39.67;;;12.13;;
28834;SDS011;15969;51.536;11.884;2023-02-15T03:48:49;39.23;;;13.00;;
28834;SDS011;15969;51.536;11.884;2023-02-15T03:51:21;37.13;;;13.37;;
28834;SDS011;15969;51.536;11.884;2023-02-15T03:53:58;42.67;;;13.00;;
28834;SDS011;15969;51.536;11.884;2023-02-15T03:56:26;40.40;;;11.67;;
28834;SDS011;15969;51.536;11.884;2023-02-15T03:58:52;36.10;;;13.00;;
28834;SDS011;15969;51.536;11.884;2023-02-15T04:01:37;46.33;;;13.23;;
28834;SDS011;15969;51.536;11.884;2023-02-15T04:04:44;55.37;;;13.00;;
28834;SDS011;15969;51.536;11.884;2023-02-15T04:07:11;65.13;;;13.13;;
28834;SDS011;15969;51.536;11.884;2023-02-15T04:09:37;37.40;;;11.80;;
28834;SDS011;15969;51.536;11.884;2023-02-15T04:12:22;50.97;;;12.40;;
28834;SDS011;15969;51.536;11.884;2023-02-15T04:14:48;40.10;;;11.57;;
28834;SDS011;15969;51.536;11.884;2023-02-15T04:17:32;29.67;;;12.13;;
28834;SDS011;15969;51.536;11.884;2023-02-15T04:19:58;51.37;;;12.37;;
28834;SDS011;15969;51.536;11.884;2023-02-15T04:22:42;42.70;;;11.43;;
28834;SDS011;15969;51.536;11.884;2023-02-15T04:25:27;43.80;;;11.60;;
28834;SDS011;15969;51.536;11.884;2023-02-15T04:27:53;44.83;;;11.87;;
28834;SDS011;15969;51.536;11.884;2023-02-15T04:30:21;49.57;;;12.00;;
28834;SDS011;15969;51.536;11.884;2023-02-15T04:32:50;37.10;;;11.43;;
28834;SDS011;15969;51.536;11.884;2023-02-15T04:35:16;37.77;;;11.47;;
28834;SDS011;15969;51.536;11.884;2023-02-15T04:37:42;28.53;;;10.57;;
28834;SDS011;15969;51.536;11.884;2023-02-15T04:40:09;26.90;;;9.87;;
28834;SDS011;15969;51.536;11.884;2023-02-15T04:42:37;31.73;;;10.70;;
28834;SDS011;15969;51.536;11.884;2023-02-15T04:45:03;35.90;;;10.57;;
28834;SDS011;15969;51.536;11.884;2023-02-15T04:47:29;24.57;;;9.00;;
28834;SDS011;15969;51.536;11.884;2023-02-15T04:49:55;13.80;;;8.33;;
28834;SDS011;15969;51.536;11.884;2023-02-15T04:52:21;13.63;;;7.53;;
28834;SDS011;15969;51.536;11.884;2023-02-15T04:54:47;23.63;;;7.80;;
28834;SDS011;15969;51.536;11.884;2023-02-15T04:57:13;18.70;;;7.57;;
28834;SDS011;15969;51.536;11.884;2023-02-15T04:59:38;11.53;;;7.83;;
28834;SDS011;15969;51.536;11.884;2023-02-15T05:02:04;17.37;;;8.20;;
28834;SDS011;15969;51.536;11.884;2023-02-15T05:04:30;13.40;;;8.33;;
28834;SDS011;15969;51.536;11.884;2023-02-15T05:06:55;9.57;;;8.03;;
28834;SDS011;15969;51.536;11.884;2023-02-15T05:09:21;15.47;;;7.47;;
28834;SDS011;15969;51.536;11.884;2023-02-15T05:11:47;13.87;;;7.03;;
28834;SDS011;15969;51.536;11.884;2023-02-15T05:14:12;10.37;;;6.90;;
28834;SDS011;15969;51.536;11.884;2023-02-15T05:16:38;34.00;;;8.33;;
28834;SDS011;15969;51.536;11.884;2023-02-15T05:19:04;16.50;;;7.50;;
28834;SDS011;15969;51.536;11.884;2023-02-15T05:21:30;13.77;;;6.90;;
28834;SDS011;15969;51.536;11.884;2023-02-15T05:23:57;17.87;;;7.47;;
28834;SDS011;15969;51.536;11.884;2023-02-15T05:26:24;23.97;;;8.60;;
28834;SDS011;15969;51.536;11.884;2023-02-15T05:29:08;21.53;;;8.67;;
28834;SDS011;15969;51.536;11.884;2023-02-15T05:31:34;14.27;;;8.43;;
28834;SDS011;15969;51.536;11.884;2023-02-15T05:34:04;16.50;;;9.20;;
28834;SDS011;15969;51.536;11.884;2023-02-15T05:36:29;13.00;;;8.53;;
28834;SDS011;15969;51.536;11.884;2023-02-15T05:38:55;14.60;;;8.63;;
28834;SDS011;15969;51.536;11.884;2023-02-15T05:41:21;24.53;;;8.67;;
28834;SDS011;15969;51.536;11.884;2023-02-15T05:43:47;18.03;;;8.53;;
28834;SDS011;15969;51.536;11.884;2023-02-15T05:46:13;12.80;;;8.73;;
28834;SDS011;15969;51.536;11.884;2023-02-15T05:48:39;21.93;;;9.33;;
28834;SDS011;15969;51.536;11.884;2023-02-15T05:51:06;17.47;;;9.17;;
28834;SDS011;15969;51.536;11.884;2023-02-15T05:53:36;21.27;;;9.40;;
28834;SDS011;15969;51.536;11.884;2023-02-15T05:56:03;14.00;;;9.40;;
28834;SDS011;15969;51.536;11.884;2023-02-15T05:58:32;14.63;;;9.67;;
28834;SDS011;15969;51.536;11.884;2023-02-15T06:01:11;12.53;;;9.00;;
28834;SDS011;15969;51.536;11.884;2023-02-15T06:03:43;14.60;;;8.47;;
28834;SDS011;15969;51.536;11.884;2023-02-15T06:06:09;15.37;;;10.40;;
28834;SDS011;15969;51.536;11.884;2023-02-15T06:08:35;14.67;;;9.23;;
28834;SDS011;15969;51.536;11.884;2023-02-15T06:11:02;21.73;;;9.50;;
28834;SDS011;15969;51.536;11.884;2023-02-15T06:13:29;18.77;;;9.30;;
28834;SDS011;15969;51.536;11.884;2023-02-15T06:15:55;21.50;;;11.10;;
28834;SDS011;15969;51.536;11.884;2023-02-15T06:18:20;30.70;;;11.00;;
28834;SDS011;15969;51.536;11.884;2023-02-15T06:20:46;26.50;;;10.13;;
28834;SDS011;15969;51.536;11.884;2023-02-15T06:23:12;24.20;;;10.07;;
28834;SDS011;15969;51.536;11.884;2023-02-15T06:25:38;19.13;;;10.03;;
28834;SDS011;15969;51.536;11.884;2023-02-15T06:28:03;21.27;;;10.53;;
28834;SDS011;15969;51.536;11.884;2023-02-15T06:30:29;32.17;;;10.37;;
28834;SDS011;15969;51.536;11.884;2023-02-15T06:32:55;46.17;;;11.97;;
28834;SDS011;15969;51.536;11.884;2023-02-15T06:35:20;36.03;;;11.10;;
28834;SDS011;15969;51.536;11.884;2023-02-15T06:37:46;36.07;;;10.87;;
28834;SDS011;15969;51.536;11.884;2023-02-15T06:40:13;35.17;;;11.57;;
28834;SDS011;15969;51.536;11.884;2023-02-15T06:42:39;41.73;;;11.70;;
28834;SDS011;15969;51.536;11.884;2023-02-15T06:45:06;28.87;;;11.83;;
28834;SDS011;15969;51.536;11.884;2023-02-15T06:47:32;20.20;;;10.13;;
28834;SDS011;15969;51.536;11.884;2023-02-15T06:49:58;17.70;;;11.67;;
28834;SDS011;15969;51.536;11.884;2023-02-15T06:52:24;28.70;;;11.43;;
28834;SDS011;15969;51.536;11.884;2023-02-15T06:54:50;35.10;;;11.37;;
28834;SDS011;15969;51.536;11.884;2023-02-15T06:57:15;32.13;;;11.43;;
28834;SDS011;15969;51.536;11.884;2023-02-15T06:59:41;22.07;;;10.37;;
28834;SDS011;15969;51.536;11.884;2023-02-15T07:02:08;22.97;;;10.97;;
28834;SDS011;15969;51.536;11.884;2023-02-15T07:04:36;23.80;;;9.93;;
28834;SDS011;15969;51.536;11.884;2023-02-15T07:07:02;29.73;;;10.17;;
28834;SDS011;15969;51.536;11.884;2023-02-15T07:09:28;22.20;;;9.57;;
28834;SDS011;15969;51.536;11.884;2023-02-15T07:11:53;29.37;;;8.87;;
28834;SDS011;15969;51.536;11.884;2023-02-15T07:14:38;26.63;;;9.50;;
28834;SDS011;15969;51.536;11.884;2023-02-15T07:17:05;28.60;;;9.40;;
28834;SDS011;15969;51.536;11.884;2023-02-15T07:19:31;37.57;;;9.70;;
28834;SDS011;15969;51.536;11.884;2023-02-15T07:21:57;19.90;;;9.70;;
28834;SDS011;15969;51.536;11.884;2023-02-15T07:24:23;31.73;;;10.20;;
28834;SDS011;15969;51.536;11.884;2023-02-15T07:26:48;23.63;;;10.47;;
28834;SDS011;15969;51.536;11.884;2023-02-15T07:29:14;22.03;;;9.60;;
28834;SDS011;15969;51.536;11.884;2023-02-15T07:31:40;22.60;;;10.37;;
28834;SDS011;15969;51.536;11.884;2023-02-15T07:34:10;24.87;;;10.70;;
28834;SDS011;15969;51.536;11.884;2023-02-15T07:36:36;22.77;;;10.53;;
28834;SDS011;15969;51.536;11.884;2023-02-15T07:39:02;18.03;;;11.40;;
28834;SDS011;15969;51.536;11.884;2023-02-15T07:41:27;22.60;;;10.00;;
28834;SDS011;15969;51.536;11.884;2023-02-15T07:43:53;14.70;;;10.43;;
28834;SDS011;15969;51.536;11.884;2023-02-15T07:46:19;15.97;;;10.73;;
28834;SDS011;15969;51.536;11.884;2023-02-15T07:48:45;17.97;;;10.97;;
28834;SDS011;15969;51.536;11.884;2023-02-15T07:51:12;20.90;;;11.63;;
28834;SDS011;15969;51.536;11.884;2023-02-15T07:53:39;26.43;;;11.87;;
28834;SDS011;15969;51.536;11.884;2023-02-15T07:56:11;19.00;;;11.37;;
28834;SDS011;15969;51.536;11.884;2023-02-15T07:58:39;27.50;;;12.17;;
28834;SDS011;15969;51.536;11.884;2023-02-15T08:01:21;17.17;;;11.60;;
28834;SDS011;15969;51.536;11.884;2023-02-15T08:03:50;18.00;;;11.70;;
28834;SDS011;15969;51.536;11.884;2023-02-15T08:06:16;18.70;;;13.07;;
28834;SDS011;15969;51.536;11.884;2023-02-15T08:08:42;19.60;;;12.00;;
28834;SDS011;15969;51.536;11.884;2023-02-15T08:21:40;11.87;;;9.63;;
28834;SDS011;15969;51.536;11.884;2023-02-15T08:24:11;11.30;;;9.37;;
28834;SDS011;15969;51.536;11.884;2023-02-15T08:26:39;10.43;;;8.97;;
28834;SDS011;15969;51.536;11.884;2023-02-15T08:29:06;12.37;;;9.50;;
28834;SDS011;15969;51.536;11.884;2023-02-15T08:31:33;10.50;;;9.27;;
28834;SDS011;15969;51.536;11.884;2023-02-15T08:34:00;11.27;;;9.40;;
28834;SDS011;15969;51.536;11.884;2023-02-15T08:36:27;11.03;;;9.20;;
28834;SDS011;15969;51.536;11.884;2023-02-15T08:38:59;11.57;;;9.10;;
28834;SDS011;15969;51.536;11.884;2023-02-15T08:41:28;13.17;;;9.83;;
28834;SDS011;15969;51.536;11.884;2023-02-15T08:43:57;12.00;;;9.67;;
28834;SDS011;15969;51.536;11.884;2023-02-15T08:46:26;11.63;;;9.83;;
28834;SDS011;15969;51.536;11.884;2023-02-15T08:48:54;12.97;;;10.23;;
28834;SDS011;15969;51.536;11.884;2023-02-15T08:51:21;13.47;;;10.40;;
28834;SDS011;15969;51.536;11.884;2023-02-15T08:53:50;14.63;;;11.27;;
28834;SDS011;15969;51.536;11.884;2023-02-15T08:56:19;13.30;;;10.53;;
28834;SDS011;15969;51.536;11.884;2023-02-15T08:58:48;13.07;;;10.30;;
28834;SDS011;15969;51.536;11.884;2023-02-15T09:01:14;12.20;;;10.63;;
28834;SDS011;15969;51.536;11.884;2023-02-15T09:03:54;13.83;;;10.27;;
28834;SDS011;15969;51.536;11.884;2023-02-15T09:06:22;17.67;;;10.67;;
28834;SDS011;15969;51.536;11.884;2023-02-15T09:08:49;16.23;;;11.57;;
28834;SDS011;15969;51.536;11.884;2023-02-15T09:11:19;13.27;;;10.07;;
28834;SDS011;15969;51.536;11.884;2023-02-15T09:13:52;14.50;;;10.20;;
28834;SDS011;15969;51.536;11.884;2023-02-15T09:16:25;12.67;;;10.23;;
28834;SDS011;15969;51.536;11.884;2023-02-15T09:18:54;13.70;;;10.67;;
28834;SDS011;15969;51.536;11.884;2023-02-15T09:21:22;12.60;;;10.70;;
28834;SDS011;15969;51.536;11.884;2023-02-15T09:23:51;11.90;;;10.53;;
28834;SDS011;15969;51.536;11.884;2023-02-15T09:26:25;11.23;;;9.80;;
28834;SDS011;15969;51.536;11.884;2023-02-15T09:28:54;11.90;;;9.93;;
28834;SDS011;15969;51.536;11.884;2023-02-15T09:31:23;12.57;;;9.97;;
28834;SDS011;15969;51.536;11.884;2023-02-15T09:33:52;12.20;;;10.10;;
28834;SDS011;15969;51.536;11.884;2023-02-15T09:36:22;13.67;;;10.67;;
28834;SDS011;15969;51.536;11.884;2023-02-15T09:38:57;12.10;;;10.43;;
28834;SDS011;15969;51.536;11.884;2023-02-15T09:41:48;11.03;;;9.53;;
28834;SDS011;15969;51.536;11.884;2023-02-15T09:50:53;12.97;;;10.40;;
28834;SDS011;15969;51.536;11.884;2023-02-15T09:53:38;12.07;;;10.40;;
28834;SDS011;15969;51.536;11.884;2023-02-15T09:56:45;13.63;;;11.07;;
28834;SDS011;15969;51.536;11.884;2023-02-15T10:02:18;13.47;;;10.80;;
28834;SDS011;15969;51.536;11.884;2023-02-15T10:10:48;11.70;;;9.77;;
28834;SDS011;15969;51.536;11.884;2023-02-15T10:13:54;14.27;;;10.03;;
28834;SDS011;15969;51.536;11.884;2023-02-15T10:16:42;10.60;;;9.00;;
28834;SDS011;15969;51.536;11.884;2023-02-15T10:19:34;11.03;;;9.27;;
28834;SDS011;15969;51.536;11.884;2023-02-15T10:28:48;10.87;;;9.53;;
28834;SDS011;15969;51.536;11.884;2023-02-15T10:31:39;10.70;;;8.83;;
28834;SDS011;15969;51.536;11.884;2023-02-15T10:34:18;10.90;;;9.20;;
28834;SDS011;15969;51.536;11.884;2023-02-15T10:36:53;12.63;;;9.40;;
28834;SDS011;15969;51.536;11.884;2023-02-15T10:39:43;10.60;;;9.00;;
28834;SDS011;15969;51.536;11.884;2023-02-15T10:42:30;10.80;;;9.00;;
28834;SDS011;15969;51.536;11.884;2023-02-15T10:48:02;10.53;;;9.43;;
28834;SDS011;15969;51.536;11.884;2023-02-15T10:53:45;10.67;;;9.43;;
28834;SDS011;15969;51.536;11.884;2023-02-15T10:59:34;10.07;;;8.80;;
28834;SDS011;15969;51.536;11.884;2023-02-15T11:05:57;10.17;;;8.77;;
28834;SDS011;15969;51.536;11.884;2023-02-15T11:08:48;12.20;;;8.67;;
28834;SDS011;15969;51.536;11.884;2023-02-15T11:11:21;11.40;;;9.63;;
28834;SDS011;15969;51.536;11.884;2023-02-15T11:14:14;10.80;;;9.17;;
28834;SDS011;15969;51.536;11.884;2023-02-15T11:16:52;9.13;;;8.13;;
28834;SDS011;15969;51.536;11.884;2023-02-15T11:19:24;9.97;;;8.03;;
28834;SDS011;15969;51.536;11.884;2023-02-15T11:22:01;10.60;;;8.70;;
28834;SDS011;15969;51.536;11.884;2023-02-15T11:24:32;10.53;;;8.17;;
28834;SDS011;15969;51.536;11.884;2023-02-15T11:27:13;10.87;;;8.70;;
28834;SDS011;15969;51.536;11.884;2023-02-15T11:32:37;9.97;;;8.50;;
28834;SDS011;15969;51.536;11.884;2023-02-15T11:37:40;10.50;;;9.23;;
28834;SDS011;15969;51.536;11.884;2023-02-15T11:43:12;9.17;;;8.17;;
28834;SDS011;15969;51.536;11.884;2023-02-15T11:45:43;9.67;;;8.50;;
28834;SDS011;15969;51.536;11.884;2023-02-15T11:48:11;9.67;;;8.67;;
28834;SDS011;15969;51.536;11.884;2023-02-15T11:50:39;9.53;;;8.53;;
28834;SDS011;15969;51.536;11.884;2023-02-15T11:53:09;9.60;;;8.10;;
28834;SDS011;15969;51.536;11.884;2023-02-15T11:55:45;9.67;;;8.53;;
28834;SDS011;15969;51.536;11.884;2023-02-15T12:01:02;10.27;;;8.73;;
28834;SDS011;15969;51.536;11.884;2023-02-15T12:03:50;12.37;;;9.47;;
28834;SDS011;15969;51.536;11.884;2023-02-15T12:14:56;10.00;;;9.00;;
28834;SDS011;15969;51.536;11.884;2023-02-15T12:17:29;11.10;;;9.37;;
28834;SDS011;15969;51.536;11.884;2023-02-15T12:20:03;11.37;;;9.60;;
28834;SDS011;15969;51.536;11.884;2023-02-15T12:22:48;9.97;;;8.37;;
28834;SDS011;15969;51.536;11.884;2023-02-15T12:25:33;10.70;;;9.00;;
28834;SDS011;15969;51.536;11.884;2023-02-15T12:28:15;9.93;;;8.90;;
28834;SDS011;15969;51.536;11.884;2023-02-15T12:30:51;10.73;;;9.13;;
28834;SDS011;15969;51.536;11.884;2023-02-15T12:33:25;10.67;;;9.57;;
28834;SDS011;15969;51.536;11.884;2023-02-15T12:36:22;13.47;;;9.90;;
28834;SDS011;15969;51.536;11.884;2023-02-15T12:41:37;10.77;;;9.27;;
28834;SDS011;15969;51.536;11.884;2023-02-15T12:44:21;10.67;;;9.00;;
28834;SDS011;15969;51.536;11.884;2023-02-15T12:49:40;11.83;;;9.40;;
28834;SDS011;15969;51.536;11.884;2023-02-15T12:52:13;10.30;;;8.73;;
28834;SDS011;15969;51.536;11.884;2023-02-15T12:54:50;10.03;;;8.57;;
28834;SDS011;15969;51.536;11.884;2023-02-15T12:57:26;9.50;;;8.50;;
28834;SDS011;15969;51.536;11.884;2023-02-15T13:00:44;12.17;;;9.13;;
28834;SDS011;15969;51.536;11.884;2023-02-15T13:02:46;12.00;;;8.77;;
28834;SDS011;15969;51.536;11.884;2023-02-15T13:05:31;11.07;;;9.43;;
28834;SDS011;15969;51.536;11.884;2023-02-15T13:10:35;10.57;;;9.47;;
28834;SDS011;15969;51.536;11.884;2023-02-15T13:13:10;9.97;;;8.97;;
28834;SDS011;15969;51.536;11.884;2023-02-15T13:15:46;10.07;;;9.03;;
28834;SDS011;15969;51.536;11.884;2023-02-15T13:18:17;10.03;;;8.87;;
28834;SDS011;15969;51.536;11.884;2023-02-15T13:21:03;11.00;;;9.47;;
28834;SDS011;15969;51.536;11.884;2023-02-15T13:23:42;10.73;;;9.63;;
28834;SDS011;15969;51.536;11.884;2023-02-15T13:26:48;11.97;;;9.07;;
28834;SDS011;15969;51.536;11.884;2023-02-15T13:29:33;10.13;;;9.03;;
28834;SDS011;15969;51.536;11.884;2023-02-15T13:32:07;10.93;;;9.13;;
28834;SDS011;15969;51.536;11.884;2023-02-15T13:35:03;11.43;;;8.90;;
28834;SDS011;15969;51.536;11.884;2023-02-15T13:37:42;10.93;;;9.07;;
28834;SDS011;15969;51.536;11.884;2023-02-15T13:41:09;8.93;;;8.03;;
28834;SDS011;15969;51.536;11.884;2023-02-15T13:43:47;8.63;;;7.20;;
28834;SDS011;15969;51.536;11.884;2023-02-15T13:46:50;8.30;;;7.50;;
28834;SDS011;15969;51.536;11.884;2023-02-15T13:59:07;8.80;;;6.30;;
28834;SDS011;15969;51.536;11.884;2023-02-15T14:01:57;7.73;;;6.97;;
28834;SDS011;15969;51.536;11.884;2023-02-15T14:08:14;6.70;;;5.47;;
28834;SDS011;15969;51.536;11.884;2023-02-15T14:10:58;5.90;;;5.40;;
28834;SDS011;15969;51.536;11.884;2023-02-15T14:13:41;6.07;;;5.40;;
28834;SDS011;15969;51.536;11.884;2023-02-15T14:16:31;5.83;;;5.33;;
28834;SDS011;15969;51.536;11.884;2023-02-15T14:28:04;6.03;;;5.53;;
28834;SDS011;15969;51.536;11.884;2023-02-15T14:30:40;5.30;;;4.80;;
28834;SDS011;15969;51.536;11.884;2023-02-15T14:36:03;6.40;;;5.70;;
28834;SDS011;15969;51.536;11.884;2023-02-15T14:38:43;5.90;;;5.37;;
28834;SDS011;15969;51.536;11.884;2023-02-15T14:44:13;6.00;;;5.50;;
28834;SDS011;15969;51.536;11.884;2023-02-15T14:47:09;6.87;;;6.23;;
28834;SDS011;15969;51.536;11.884;2023-02-15T14:49:44;6.80;;;6.20;;
28834;SDS011;15969;51.536;11.884;2023-02-15T14:52:10;7.40;;;6.17;;
28834;SDS011;15969;51.536;11.884;2023-02-15T15:08:21;7.00;;;6.40;;
28834;SDS011;15969;51.536;11.884;2023-02-15T15:13:57;7.53;;;6.83;;
28834;SDS011;15969;51.536;11.884;2023-02-15T15:16:29;7.50;;;6.80;;
28834;SDS011;15969;51.536;11.884;2023-02-15T15:19:12;7.07;;;6.20;;
28834;SDS011;15969;51.536;11.884;2023-02-15T15:22:19;7.63;;;6.97;;
28834;SDS011;15969;51.536;11.884;2023-02-15T15:24:53;8.47;;;7.70;;
28834;SDS011;15969;51.536;11.884;2023-02-15T15:32:58;7.57;;;6.97;;
28834;SDS011;15969;51.536;11.884;2023-02-15T15:35:55;8.30;;;7.50;;
28834;SDS011;15969;51.536;11.884;2023-02-15T15:42:22;8.83;;;8.03;;
28834;SDS011;15969;51.536;11.884;2023-02-15T15:48:06;8.53;;;7.73;;
28834;SDS011;15969;51.536;11.884;2023-02-15T15:50:56;8.17;;;7.33;;
28834;SDS011;15969;51.536;11.884;2023-02-15T15:53:32;11.37;;;8.10;;
28834;SDS011;15969;51.536;11.884;2023-02-15T15:56:07;9.10;;;8.13;;
28834;SDS011;15969;51.536;11.884;2023-02-15T15:58:41;9.37;;;7.83;;
28834;SDS011;15969;51.536;11.884;2023-02-15T16:01:10;8.10;;;7.33;;
28834;SDS011;15969;51.536;11.884;2023-02-15T16:03:38;9.50;;;7.77;;
28834;SDS011;15969;51.536;11.884;2023-02-15T16:06:13;8.10;;;7.40;;
28834;SDS011;15969;51.536;11.884;2023-02-15T16:08:54;8.33;;;7.53;;
28834;SDS011;15969;51.536;11.884;2023-02-15T16:11:27;8.43;;;7.40;;
28834;SDS011;15969;51.536;11.884;2023-02-15T16:13:54;8.10;;;7.30;;
28834;SDS011;15969;51.536;11.884;2023-02-15T16:16:21;7.90;;;7.20;;
28834;SDS011;15969;51.536;11.884;2023-02-15T16:18:50;8.33;;;7.53;;
28834;SDS011;15969;51.536;11.884;2023-02-15T16:21:20;8.53;;;7.60;;
28834;SDS011;15969;51.536;11.884;2023-02-15T16:23:57;7.80;;;7.00;;
28834;SDS011;15969;51.536;11.884;2023-02-15T16:29:43;8.40;;;7.50;;
28834;SDS011;15969;51.536;11.884;2023-02-15T16:34:52;7.80;;;7.10;;
28834;SDS011;15969;51.536;11.884;2023-02-15T16:37:27;8.47;;;7.67;;
28834;SDS011;15969;51.536;11.884;2023-02-15T16:40:00;8.47;;;7.33;;
28834;SDS011;15969;51.536;11.884;2023-02-15T16:42:26;8.67;;;7.87;;
28834;SDS011;15969;51.536;11.884;2023-02-15T16:45:05;8.80;;;7.90;;
28834;SDS011;15969;51.536;11.884;2023-02-15T16:47:39;9.23;;;8.07;;
28834;SDS011;15969;51.536;11.884;2023-02-15T16:50:10;8.97;;;7.73;;
28834;SDS011;15969;51.536;11.884;2023-02-15T16:52:53;9.57;;;7.43;;
28834;SDS011;15969;51.536;11.884;2023-02-15T16:55:22;9.50;;;8.30;;
28834;SDS011;15969;51.536;11.884;2023-02-15T16:57:50;8.73;;;7.83;;
28834;SDS011;15969;51.536;11.884;2023-02-15T17:00:22;10.40;;;8.23;;
28834;SDS011;15969;51.536;11.884;2023-02-15T17:08:17;9.13;;;7.33;;
28834;SDS011;15969;51.536;11.884;2023-02-15T17:16:27;9.27;;;7.93;;
28834;SDS011;15969;51.536;11.884;2023-02-15T17:18:57;9.57;;;8.03;;
28834;SDS011;15969;51.536;11.884;2023-02-15T17:21:33;9.77;;;7.67;;
28834;SDS011;15969;51.536;11.884;2023-02-15T17:24:13;9.60;;;8.30;;
28834;SDS011;15969;51.536;11.884;2023-02-15T17:26:54;8.17;;;7.33;;
28834;SDS011;15969;51.536;11.884;2023-02-15T17:29:30;10.27;;;8.43;;
28834;SDS011;15969;51.536;11.884;2023-02-15T17:32:09;7.63;;;6.83;;
28834;SDS011;15969;51.536;11.884;2023-02-15T17:39:56;9.63;;;8.20;;
28834;SDS011;15969;51.536;11.884;2023-02-15T17:42:24;8.77;;;7.50;;
28834;SDS011;15969;51.536;11.884;2023-02-15T17:44:50;8.23;;;7.40;;